createdAt,value
2023-04-15T00:02:33.231Z,2.38
2023-04-15T00:05:10.901Z,2.17
2023-04-15T00:07:48.036Z,2.30
2023-04-15T00:10:27.226Z,2.58
2023-04-15T00:13:13.812Z,2.90
2023-04-15T00:16:00.203Z,2.33
2023-04-15T00:18:27.796Z,1.85
2023-04-15T00:20:58.514Z,2.72
2023-04-15T00:23:28.809Z,1.75
2023-04-15T00:25:58.626Z,2.55
2023-04-15T00:28:29.471Z,2.00
2023-04-15T00:31:01.231Z,2.22
2023-04-15T00:33:29.281Z,1.73
2023-04-15T00:36:10.772Z,2.60
2023-04-15T00:38:47.581Z,1.90
2023-04-15T00:41:28.301Z,2.45
2023-04-15T00:44:01.367Z,2.15
2023-04-15T00:46:39.798Z,2.22
2023-04-15T00:49:12.537Z,2.22
2023-04-15T00:51:58.129Z,2.50
2023-04-15T00:54:26.905Z,2.70
2023-04-15T00:57:03.471Z,2.13
2023-04-15T00:59:42.505Z,2.53
2023-04-15T01:02:25.876Z,2.10
2023-04-15T01:04:54.588Z,2.22
2023-04-15T01:07:23.373Z,2.33
2023-04-15T01:09:57.934Z,4.55
2023-04-15T01:12:27.429Z,2.15
2023-04-15T01:14:57.268Z,2.42
2023-04-15T01:17:27.894Z,2.75
2023-04-15T01:20:01.830Z,2.55
2023-04-15T01:22:31.813Z,2.55
2023-04-15T01:25:10.208Z,3.08
2023-04-15T01:27:44.392Z,3.15
2023-04-15T01:30:11.877Z,2.30
2023-04-15T01:32:42.005Z,2.95
2023-04-15T01:35:10.166Z,2.40
2023-04-15T01:37:40.113Z,3.95
2023-04-15T01:40:08.276Z,2.65
2023-04-15T01:42:37.709Z,3.80
2023-04-15T01:45:07.385Z,2.60
2023-04-15T01:47:37.517Z,2.40
2023-04-15T01:50:11.034Z,2.80
2023-04-15T01:52:41.930Z,2.78
2023-04-15T01:55:15.029Z,3.00
2023-04-15T01:57:52.138Z,2.80
2023-04-15T02:00:19.530Z,2.38
2023-04-15T02:02:47.006Z,2.25
2023-04-15T02:05:14.998Z,2.80
2023-04-15T02:07:47.746Z,3.08
2023-04-15T02:10:16.852Z,2.83
2023-04-15T02:12:45.233Z,3.20
2023-04-15T02:15:12.678Z,3.08
2023-04-15T02:17:40.095Z,3.83
2023-04-15T02:20:09.656Z,3.50
2023-04-15T02:22:37.121Z,2.80
2023-04-15T02:25:04.725Z,2.88
2023-04-15T02:27:33.200Z,3.50
2023-04-15T02:30:00.937Z,3.90
2023-04-15T02:32:29.392Z,3.22
2023-04-15T02:34:56.996Z,3.42
2023-04-15T02:37:27.521Z,3.33
2023-04-15T02:39:57.383Z,3.63
2023-04-15T02:42:27.972Z,3.08
2023-04-15T02:44:55.714Z,3.03
2023-04-15T02:47:28.550Z,2.78
2023-04-15T02:49:58.821Z,2.75
2023-04-15T02:52:26.511Z,2.75
2023-04-15T02:54:57.627Z,2.97
2023-04-15T02:57:25.092Z,3.17
2023-04-15T03:00:21.457Z,3.00
2023-04-15T03:02:56.853Z,3.78
2023-04-15T03:05:25.682Z,3.97
2023-04-15T03:07:53.035Z,3.10
2023-04-15T03:10:21.796Z,3.78
2023-04-15T03:12:48.976Z,3.85
2023-04-15T03:15:21.775Z,3.77
2023-04-15T03:17:52.130Z,3.40
2023-04-15T03:20:19.946Z,3.95
2023-04-15T03:22:48.538Z,3.78
2023-04-15T03:25:16.008Z,3.78
2023-04-15T03:27:43.546Z,3.55
2023-04-15T03:30:12.611Z,3.40
2023-04-15T03:32:41.045Z,3.28
2023-04-15T03:35:12.346Z,3.58
2023-04-15T03:37:42.195Z,3.78
2023-04-15T03:40:13.018Z,3.55
2023-04-15T03:42:42.832Z,4.07
2023-04-15T03:45:13.422Z,3.65
2023-04-15T03:47:43.358Z,3.72
2023-04-15T03:50:18.014Z,4.22
2023-04-15T03:52:45.932Z,4.03
2023-04-15T03:55:13.559Z,3.78
2023-04-15T03:57:40.715Z,4.18
2023-04-15T04:00:14.497Z,3.55
2023-04-15T04:02:49.724Z,3.65
2023-04-15T04:05:20.346Z,3.33
2023-04-15T04:07:47.996Z,3.60
2023-04-15T04:10:15.177Z,4.00
2023-04-15T04:12:42.510Z,3.72
2023-04-15T04:15:10.184Z,3.47
2023-04-15T04:17:37.550Z,4.03
2023-04-15T04:20:05.903Z,3.25
2023-04-15T04:22:40.900Z,4.10
2023-04-15T04:25:08.960Z,3.60
2023-04-15T04:27:36.642Z,3.80
2023-04-15T04:32:52.879Z,2.88
2023-04-15T04:35:24.836Z,3.38
2023-04-15T04:37:58.039Z,3.50
2023-04-15T04:40:25.349Z,3.03
2023-04-15T04:42:55.654Z,2.90
2023-04-15T04:45:22.933Z,2.90
2023-04-15T04:47:56.108Z,3.42
2023-04-15T04:50:26.279Z,3.05
2023-04-15T04:52:56.186Z,2.97
2023-04-15T04:55:23.461Z,2.88
2023-04-15T04:57:56.134Z,2.30
2023-04-15T05:00:28.807Z,3.05
2023-04-15T05:02:59.435Z,2.30
2023-04-15T05:05:27.313Z,2.08
2023-04-15T05:07:56.847Z,2.25
2023-04-15T05:10:24.161Z,1.70
2023-04-15T05:12:54.668Z,2.50
2023-04-15T05:15:21.950Z,2.47
2023-04-15T05:17:51.187Z,2.00
2023-04-15T05:20:18.449Z,2.08
2023-04-15T05:22:54.291Z,2.78
2023-04-15T05:25:22.701Z,2.50
2023-04-15T05:27:50.321Z,2.55
2023-04-15T05:30:17.953Z,1.65
2023-04-15T05:32:45.253Z,1.77
2023-04-15T05:35:19.373Z,1.80
2023-04-15T05:37:57.758Z,1.40
2023-04-15T05:40:31.995Z,2.05
2023-04-15T05:43:04.268Z,1.50
2023-04-15T05:45:47.316Z,1.33
2023-04-15T05:48:23.610Z,1.80
2023-04-15T05:51:02.205Z,1.38
2023-04-15T05:53:33.094Z,2.00
2023-04-15T05:56:01.227Z,2.08
2023-04-15T05:58:30.340Z,2.28
2023-04-15T06:01:10.102Z,1.60
2023-04-15T06:03:40.125Z,1.63
2023-04-15T06:06:08.052Z,1.88
2023-04-15T06:08:37.497Z,1.33
2023-04-15T06:11:08.119Z,1.77
2023-04-15T06:13:41.770Z,2.30
2023-04-15T06:16:17.427Z,2.50
2023-04-15T06:18:44.813Z,3.08
2023-04-15T06:21:12.253Z,3.10
2023-04-15T06:23:43.672Z,3.30
2023-04-15T06:26:11.784Z,3.50
2023-04-15T06:28:46.692Z,3.00
2023-04-15T06:31:15.843Z,3.20
2023-04-15T06:33:46.133Z,4.18
2023-04-15T06:36:16.920Z,3.55
2023-04-15T06:41:22.217Z,3.63
2023-04-15T06:43:55.610Z,3.08
2023-04-15T06:46:26.090Z,3.38
2023-04-15T06:48:56.125Z,3.55
2023-04-15T06:51:26.182Z,3.63
2023-04-15T06:54:01.633Z,4.28
2023-04-15T06:56:30.883Z,3.13
2023-04-15T06:58:58.700Z,2.80
2023-04-15T07:01:31.791Z,4.00
2023-04-15T07:03:59.524Z,3.10
2023-04-15T07:06:30.172Z,2.50
2023-04-15T07:09:06.334Z,3.03
2023-04-15T07:11:33.858Z,2.58
2023-04-15T07:14:10.317Z,3.35
2023-04-15T07:16:40.499Z,3.58
2023-04-15T07:19:07.836Z,3.80
2023-04-15T07:21:35.065Z,3.88
2023-04-15T07:24:11.421Z,3.17
2023-04-15T07:26:43.539Z,3.03
2023-04-15T07:29:11.041Z,3.05
2023-04-15T07:31:42.505Z,3.53
2023-04-15T07:34:13.400Z,2.83
2023-04-15T07:36:43.881Z,2.50
2023-04-15T07:39:11.284Z,2.85
2023-04-15T07:41:52.508Z,3.15
2023-04-15T07:44:22.682Z,2.85
2023-04-15T07:46:56.900Z,2.58
2023-04-15T07:49:34.453Z,1.73
2023-04-15T07:52:04.648Z,2.35
2023-04-15T07:54:33.879Z,1.45
2023-04-15T07:57:01.734Z,1.65
2023-04-15T07:59:31.456Z,2.33
2023-04-15T08:02:02.072Z,2.22
2023-04-15T08:04:34.869Z,1.40
2023-04-15T08:07:05.366Z,3.13
2023-04-15T08:09:34.255Z,1.75
2023-04-15T08:12:01.614Z,1.30
2023-04-15T08:14:37.994Z,1.50
2023-04-15T08:17:05.933Z,1.58
2023-04-15T08:19:33.921Z,1.55
2023-04-15T08:22:10.833Z,1.60
2023-04-15T08:24:45.449Z,1.48
2023-04-15T08:27:17.822Z,1.75
2023-04-15T08:29:51.592Z,1.70
2023-04-15T08:32:21.748Z,1.37
2023-04-15T08:34:51.957Z,1.95
2023-04-15T08:37:19.358Z,1.70
2023-04-15T08:39:46.663Z,1.90
2023-04-15T08:42:18.736Z,1.48
2023-04-15T08:44:48.653Z,2.25
2023-04-15T08:47:21.092Z,1.20
2023-04-15T08:49:54.355Z,1.20
2023-04-15T08:55:02.639Z,1.80
2023-04-15T08:57:38.561Z,1.80
2023-04-15T09:00:19.420Z,1.50
2023-04-15T09:02:57.171Z,1.30
2023-04-15T09:07:54.931Z,1.95
2023-04-15T09:10:22.813Z,1.52
2023-04-15T09:12:50.428Z,1.48
2023-04-15T09:15:20.484Z,1.30
2023-04-15T09:17:48.983Z,1.45
2023-04-15T09:20:24.181Z,2.25
2023-04-15T09:22:52.600Z,1.83
2023-04-15T09:25:35.056Z,1.52
2023-04-15T09:28:03.527Z,2.85
2023-04-15T09:30:38.324Z,1.63
2023-04-15T09:33:08.902Z,1.38
2023-04-15T09:35:37.269Z,1.33
2023-04-15T09:38:12.447Z,1.85
2023-04-15T09:40:44.265Z,1.27
2023-04-15T09:43:19.813Z,1.30
2023-04-15T09:45:56.363Z,1.60
2023-04-15T09:48:31.322Z,1.98
2023-04-15T09:51:02.707Z,1.40
2023-04-15T09:53:44.568Z,2.17
2023-04-15T09:56:13.116Z,1.55
2023-04-15T09:59:10.619Z,1.10
2023-04-15T10:02:00.724Z,2.03
2023-04-15T10:04:40.222Z,1.20
2023-04-15T10:07:18.603Z,1.40
2023-04-15T10:09:52.449Z,2.28
2023-04-15T10:15:39.533Z,2.05
2023-04-15T10:18:26.408Z,1.30
2023-04-15T10:21:06.856Z,2.40
2023-04-15T10:26:50.817Z,1.73
2023-04-15T10:29:35.094Z,2.33
2023-04-15T10:32:11.017Z,1.85
2023-04-15T10:34:44.458Z,1.80
2023-04-15T10:40:31.960Z,1.40
2023-04-15T10:43:20.022Z,2.33
2023-04-15T10:46:04.310Z,2.88
2023-04-15T10:49:07.045Z,1.83
2023-04-15T10:52:01.872Z,1.92
2023-04-15T10:54:36.589Z,2.28
2023-04-15T10:57:12.495Z,1.65
2023-04-15T11:00:13.353Z,2.25
2023-04-15T11:03:11.725Z,1.97
2023-04-15T11:05:41.916Z,1.75
2023-04-15T11:08:13.323Z,2.45
2023-04-15T11:10:48.252Z,1.73
2023-04-15T11:13:32.688Z,1.83
2023-04-15T11:16:05.908Z,2.10
2023-04-15T11:18:56.196Z,2.92
2023-04-15T11:22:03.014Z,1.60
2023-04-15T11:27:41.210Z,3.22
2023-04-15T11:30:44.768Z,3.97
2023-04-15T11:33:15.256Z,2.28
2023-04-15T11:35:55.288Z,2.30
2023-04-15T11:38:46.298Z,2.03
2023-04-15T11:41:32.526Z,2.38
2023-04-15T11:44:17.199Z,4.38
2023-04-15T11:47:32.404Z,4.05
2023-04-15T11:50:21.342Z,3.10
2023-04-15T11:53:09.232Z,2.35
2023-04-15T11:55:54.290Z,4.22
2023-04-15T11:58:38.698Z,3.83
2023-04-15T12:01:21.804Z,2.40
2023-04-15T12:04:13.649Z,2.05
2023-04-15T12:06:43.993Z,1.50
2023-04-15T12:12:12.663Z,3.28
2023-04-15T12:14:51.832Z,2.70
2023-04-15T12:17:31.934Z,2.15
2023-04-15T12:20:50.629Z,1.60
2023-04-15T12:23:37.446Z,2.25
2023-04-15T12:26:13.736Z,2.10
2023-04-15T12:28:47.165Z,2.10
2023-04-15T12:34:15.180Z,1.77
2023-04-15T12:36:51.245Z,2.08
2023-04-15T12:39:40.965Z,2.17
2023-04-15T12:45:15.481Z,3.13
2023-04-15T12:48:09.069Z,2.55
2023-04-15T12:50:45.412Z,2.10
2023-04-15T12:53:21.730Z,2.05
2023-04-15T12:55:54.052Z,3.50
2023-04-15T13:01:10.872Z,1.40
2023-04-15T13:03:52.432Z,2.78
2023-04-15T13:06:21.850Z,2.30
2023-04-15T13:08:58.291Z,2.53
2023-04-15T13:11:36.227Z,1.90
2023-04-15T13:14:18.225Z,1.50
2023-04-15T13:16:45.891Z,2.20
2023-04-15T13:19:14.431Z,2.00
2023-04-15T13:22:05.738Z,2.15
2023-04-15T13:24:33.346Z,1.95
2023-04-15T13:27:08.652Z,2.08
2023-04-15T13:29:47.350Z,5.57
2023-04-15T13:32:20.908Z,2.38
2023-04-15T13:34:51.434Z,2.60
2023-04-15T13:37:31.815Z,1.73
2023-04-15T13:39:59.174Z,1.50
2023-04-15T13:42:31.997Z,2.17
2023-04-15T13:45:02.282Z,1.60
2023-04-15T13:47:34.524Z,1.63
2023-04-15T13:50:05.991Z,2.25
2023-04-15T13:52:41.055Z,1.75
2023-04-15T13:55:20.625Z,1.50
2023-04-15T14:00:49.030Z,1.42
2023-04-15T14:03:26.635Z,1.35
2023-04-15T14:06:05.726Z,1.60
2023-04-15T14:08:47.195Z,2.35
2023-04-15T14:11:14.527Z,1.88
2023-04-15T14:13:53.956Z,2.10
2023-04-15T14:16:27.296Z,2.33
2023-04-15T14:19:03.215Z,2.00
2023-04-15T14:21:46.137Z,1.88
2023-04-15T14:27:28.877Z,1.85
2023-04-15T14:29:59.285Z,2.30
2023-04-15T14:32:57.464Z,2.67
2023-04-15T14:35:30.677Z,2.55
2023-04-15T14:38:04.697Z,3.28
2023-04-15T14:40:45.028Z,3.42
2023-04-15T14:43:15.314Z,3.97
2023-04-15T14:45:51.905Z,2.72
2023-04-15T14:48:32.386Z,2.85
2023-04-15T14:51:07.135Z,3.03
2023-04-15T14:53:45.761Z,3.53
2023-04-15T14:56:19.980Z,3.58
2023-04-15T14:58:53.247Z,3.65
2023-04-15T15:01:33.640Z,2.47
2023-04-15T15:06:35.123Z,3.13
2023-04-15T15:09:04.556Z,2.50
2023-04-15T15:11:36.961Z,2.25
2023-04-15T15:14:04.227Z,2.22
2023-04-15T15:16:37.582Z,2.13
2023-04-15T15:19:05.373Z,2.15
2023-04-15T15:21:32.713Z,1.85
2023-04-15T15:23:59.965Z,2.58
2023-04-15T15:26:31.026Z,2.25
2023-04-15T15:28:58.837Z,2.13
2023-04-15T15:31:33.992Z,1.83
2023-04-15T15:34:01.441Z,1.60
2023-04-15T15:36:34.984Z,1.88
2023-04-15T15:39:14.470Z,2.53
2023-04-15T15:41:41.890Z,2.28
2023-04-15T15:44:09.273Z,1.92
2023-04-15T15:46:37.850Z,2.13
2023-04-15T15:49:13.421Z,1.83
2023-04-15T15:54:41.362Z,2.25
2023-04-15T15:57:08.833Z,2.20
2023-04-15T16:05:25.456Z,1.77
2023-04-15T16:07:57.365Z,2.28
2023-04-15T16:10:27.851Z,1.85
2023-04-15T16:13:08.856Z,1.77
2023-04-15T16:15:42.806Z,2.30
2023-04-15T16:18:22.788Z,2.10
2023-04-15T16:20:58.610Z,2.05
2023-04-15T16:23:41.836Z,2.50
2023-04-15T16:26:42.807Z,1.58
2023-04-15T16:29:16.819Z,1.55
2023-04-15T16:31:58.746Z,1.40
2023-04-15T16:34:50.651Z,2.15
2023-04-15T16:37:22.582Z,1.77
2023-04-15T16:40:00.005Z,2.28
2023-04-15T16:42:38.319Z,1.90
2023-04-15T16:45:12.822Z,1.45
2023-04-15T16:47:46.677Z,2.03
2023-04-15T16:50:16.571Z,1.88
2023-04-15T16:52:47.536Z,2.00
2023-04-15T16:55:15.910Z,1.67
2023-04-15T16:58:01.415Z,2.00
2023-04-15T17:00:36.525Z,2.10
2023-04-15T17:03:09.774Z,1.52
2023-04-15T17:05:40.111Z,1.55
2023-04-15T17:08:10.919Z,1.55
2023-04-15T17:10:41.883Z,2.20
2023-04-15T17:13:11.658Z,1.58
2023-04-15T17:15:42.393Z,2.10
2023-04-15T17:18:18.724Z,1.35
2023-04-15T17:20:52.152Z,2.20
2023-04-15T17:23:36.384Z,1.58
2023-04-15T17:26:48.709Z,1.55
2023-04-15T17:29:43.392Z,1.90
2023-04-15T17:32:23.493Z,1.90
2023-04-15T17:37:55.854Z,2.00
2023-04-15T17:40:23.350Z,1.80
2023-04-15T17:42:59.189Z,1.75
2023-04-15T17:45:29.065Z,1.80
2023-04-15T17:48:07.693Z,1.92
2023-04-15T17:50:42.703Z,1.85
2023-04-15T17:53:12.846Z,1.58
2023-04-15T17:55:42.904Z,1.98
2023-04-15T17:58:10.176Z,1.55
2023-04-15T18:00:40.335Z,2.03
2023-04-15T18:05:48.710Z,1.60
2023-04-15T18:08:16.130Z,2.00
2023-04-15T18:10:45.827Z,2.10
2023-04-15T18:13:15.337Z,2.00
2023-04-15T18:15:51.110Z,2.85
2023-04-15T18:18:24.564Z,2.53
2023-04-15T18:20:54.578Z,1.60
2023-04-15T18:23:29.227Z,2.08
2023-04-15T18:26:16.054Z,2.40
2023-04-15T18:28:43.397Z,2.13
2023-04-15T18:31:24.277Z,2.55
2023-04-15T18:33:51.414Z,2.10
2023-04-15T18:36:21.073Z,2.17
2023-04-15T18:38:48.318Z,2.30
2023-04-15T18:41:15.701Z,2.85
2023-04-15T18:43:47.366Z,2.97
2023-04-15T18:46:23.860Z,2.60
2023-04-15T18:48:56.438Z,2.78
2023-04-15T18:54:08.422Z,3.50
2023-04-15T18:56:41.282Z,2.65
2023-04-15T18:59:29.615Z,3.10
2023-04-15T19:02:01.551Z,2.72
2023-04-15T19:04:31.185Z,3.47
2023-04-15T19:06:59.388Z,2.55
2023-04-15T19:09:29.910Z,3.00
2023-04-15T19:11:59.711Z,2.42
2023-04-15T19:14:37.754Z,1.90
2023-04-15T19:17:05.505Z,2.65
2023-04-15T19:19:33.574Z,2.40
2023-04-15T19:22:07.192Z,3.15
2023-04-15T19:24:38.423Z,3.65
2023-04-15T19:27:13.783Z,3.47
2023-04-15T19:29:44.123Z,3.60
2023-04-15T19:32:11.538Z,6.03
2023-04-15T19:34:41.647Z,6.80
2023-04-15T19:37:08.910Z,5.18
2023-04-15T19:39:38.856Z,4.35
2023-04-15T19:42:10.985Z,5.40
2023-04-15T19:44:50.336Z,4.63
2023-04-15T19:47:17.743Z,5.35
2023-04-15T19:49:50.926Z,3.40
2023-04-15T19:52:29.916Z,3.60
2023-04-15T19:55:00.530Z,4.15
2023-04-15T19:57:35.980Z,4.18
2023-04-15T20:00:08.065Z,3.35
2023-04-15T20:02:40.782Z,3.08
2023-04-15T20:05:17.495Z,3.53
2023-04-15T20:07:51.984Z,3.78
2023-04-15T20:10:31.059Z,4.35
2023-04-15T20:13:06.499Z,3.40
2023-04-15T20:15:43.010Z,3.20
2023-04-15T20:18:16.264Z,4.28
2023-04-15T20:20:47.781Z,2.53
2023-04-15T20:23:14.989Z,3.63
2023-04-15T20:25:42.765Z,3.65
2023-04-15T20:28:10.239Z,3.03
2023-04-15T20:30:39.597Z,2.88
2023-04-15T20:33:11.688Z,3.33
2023-04-15T20:35:41.275Z,3.00
2023-04-15T20:38:11.862Z,2.55
2023-04-15T20:40:41.600Z,2.65
2023-04-15T20:43:11.258Z,2.53
2023-04-15T20:45:39.301Z,2.17
2023-04-15T20:48:07.295Z,2.10
2023-04-15T20:50:39.331Z,2.13
2023-04-15T20:53:06.575Z,2.00
2023-04-15T20:55:34.207Z,2.13
2023-04-15T20:58:04.593Z,2.78
2023-04-15T21:00:35.140Z,2.97
2023-04-15T21:03:06.192Z,3.33
2023-04-15T21:08:34.787Z,3.63
2023-04-15T21:11:04.315Z,3.53
2023-04-15T21:13:35.685Z,2.85
2023-04-15T21:16:14.618Z,3.92
2023-04-15T21:18:56.181Z,3.33
2023-04-15T21:21:28.906Z,3.33
2023-04-15T21:24:00.065Z,2.97
2023-04-15T21:26:32.080Z,3.38
2023-04-15T21:29:22.023Z,2.75
2023-04-15T21:31:59.120Z,2.80
2023-04-15T21:34:34.206Z,2.67
2023-04-15T21:37:04.226Z,2.63
2023-04-15T21:39:36.782Z,2.95
2023-04-15T21:42:16.484Z,2.72
2023-04-15T21:44:46.862Z,2.28
2023-04-15T21:47:18.249Z,2.58
2023-04-15T21:50:08.416Z,3.10
2023-04-15T21:52:58.461Z,3.20
2023-04-15T21:55:32.642Z,3.00
2023-04-15T21:58:00.648Z,2.90
2023-04-15T22:00:40.957Z,2.78
2023-04-15T22:03:16.460Z,2.83
2023-04-15T22:05:53.169Z,2.83
2023-04-15T22:08:38.634Z,2.78
2023-04-15T22:11:28.237Z,3.35
2023-04-15T22:14:10.607Z,3.50
2023-04-15T22:16:43.493Z,2.55
2023-04-15T22:19:19.218Z,3.60
2023-04-15T22:21:51.774Z,3.00
2023-04-15T22:24:34.309Z,2.95
2023-04-15T22:27:16.841Z,3.30
2023-04-15T22:29:50.936Z,3.30
2023-04-15T22:32:30.980Z,3.42
2023-04-15T22:35:01.825Z,3.05
2023-04-15T22:37:45.430Z,3.85
2023-04-15T22:40:14.202Z,3.22
2023-04-15T22:42:41.894Z,3.80
2023-04-15T22:45:09.954Z,3.55
2023-04-15T22:47:51.336Z,3.17
2023-04-15T22:50:18.812Z,2.85
2023-04-15T22:52:52.514Z,3.55
2023-04-15T22:55:20.053Z,3.22
2023-04-15T22:57:50.063Z,3.58
2023-04-15T23:00:24.264Z,3.08
2023-04-15T23:03:11.362Z,3.95
2023-04-15T23:05:43.210Z,3.75
2023-04-15T23:08:14.514Z,3.80
2023-04-15T23:10:46.117Z,3.35
2023-04-15T23:13:13.664Z,3.38
2023-04-15T23:15:41.257Z,3.10
2023-04-15T23:18:08.738Z,2.92
2023-04-15T23:20:39.262Z,3.80
2023-04-15T23:23:06.593Z,3.50
2023-04-15T23:25:33.979Z,3.70
2023-04-15T23:28:01.886Z,3.42
2023-04-15T23:30:29.315Z,3.55
2023-04-15T23:32:58.481Z,3.53
2023-04-15T23:35:29.816Z,3.88
2023-04-15T23:37:57.414Z,3.92
2023-04-15T23:40:24.761Z,3.83
2023-04-15T23:42:52.207Z,3.75
2023-04-15T23:45:24.770Z,3.95
2023-04-15T23:47:54.146Z,3.45
2023-04-15T23:50:21.417Z,3.88
2023-04-15T23:52:52.048Z,4.35
2023-04-15T23:55:21.947Z,3.45
2023-04-15T23:57:56.773Z,4.28
